createdAt,value
2023-03-23T15:59:19.161Z,50.50
2023-03-23T16:09:44.585Z,51.70
2023-03-23T16:32:10.728Z,52.90
2023-03-23T16:42:32.210Z,54.50
2023-03-23T16:52:53.558Z,55.80
2023-03-23T17:03:16.574Z,57.00
2023-03-23T17:13:38.065Z,58.00
2023-03-23T17:23:59.202Z,58.50
2023-03-23T17:34:20.682Z,59.10
2023-03-23T17:44:42.117Z,58.80
2023-03-23T17:55:03.231Z,58.80
2023-03-23T18:05:24.703Z,58.70
2023-03-23T18:15:46.650Z,58.90
2023-03-23T18:26:11.066Z,58.70
2023-03-23T18:36:32.340Z,59.40
2023-03-23T18:46:53.669Z,59.60
2023-03-23T18:57:17.113Z,60.10
2023-03-23T19:07:38.515Z,60.00
2023-03-23T19:17:59.632Z,59.90
2023-03-23T19:29:05.632Z,60.00
2023-03-23T19:39:04.840Z,59.80
2023-03-23T19:49:26.777Z,60.30
2023-03-23T19:59:48.313Z,60.90
2023-03-23T20:10:09.171Z,60.50
2023-03-23T20:20:30.352Z,61.20
2023-03-23T20:31:26.528Z,62.20
2023-03-23T20:41:50.791Z,63.00
2023-03-23T20:52:14.248Z,63.70
2023-03-23T21:02:35.442Z,63.10
2023-03-23T21:12:57.208Z,63.80
2023-03-23T21:23:19.584Z,64.70
2023-03-23T21:33:41.080Z,64.70
2023-03-23T21:44:04.059Z,64.30
2023-03-23T21:54:30.237Z,64.00
2023-03-23T22:04:52.234Z,64.20
2023-03-23T22:15:15.135Z,64.30
2023-03-23T22:25:36.331Z,64.90
2023-03-23T22:35:57.520Z,65.00
2023-03-23T22:46:18.857Z,64.70
2023-03-23T22:56:40.315Z,64.20
2023-03-23T23:07:12.072Z,63.50
2023-03-23T23:17:34.877Z,62.90
2023-03-23T23:27:58.279Z,63.00
2023-03-23T23:38:19.332Z,63.40
2023-03-23T23:48:42.025Z,62.70
2023-03-23T23:59:03.146Z,63.50
